createdAt,value
2019-03-12T00:08:11.999Z,5.70
2019-03-12T00:18:13.999Z,5.60
2019-03-12T00:28:16.342Z,5.50
2019-03-12T00:38:18.549Z,5.50
2019-03-12T00:48:20.519Z,5.50
2019-03-12T00:58:22.470Z,5.40
2019-03-12T01:08:24.771Z,5.40
2019-03-12T01:18:27.005Z,5.30
2019-03-12T01:28:28.907Z,5.30
2019-03-12T01:38:30.896Z,5.40
2019-03-12T01:48:33.268Z,5.30
2019-03-12T01:58:35.766Z,5.40
2019-03-12T02:08:37.702Z,5.30
2019-03-12T02:18:39.691Z,5.30
2019-03-12T02:28:41.655Z,5.30
2019-03-12T02:38:44.207Z,5.20
2019-03-12T02:48:46.162Z,5.10
2019-03-12T02:58:48.162Z,5.10
2019-03-12T03:08:50.112Z,5.00
2019-03-12T03:18:52.109Z,5.00
2019-03-12T03:28:54.976Z,4.90
2019-03-12T03:38:58.364Z,4.90
2019-03-12T03:49:00.905Z,4.80
2019-03-12T03:59:03.087Z,4.90
2019-03-12T04:09:05.076Z,5.00
2019-03-12T04:19:07.859Z,5.00
2019-03-12T04:29:10.469Z,4.90
2019-03-12T04:39:12.463Z,5.00
2019-03-12T04:49:14.447Z,5.00
2019-03-12T04:59:16.796Z,5.10
2019-03-12T05:09:19.092Z,5.10
2019-03-12T05:19:21.891Z,5.20
2019-03-12T05:29:24.160Z,5.20
2019-03-12T05:39:26.158Z,5.30
2019-03-12T05:49:28.405Z,5.40
2019-03-12T05:59:31.409Z,5.50
2019-03-12T06:09:33.421Z,5.60
2019-03-12T06:19:35.671Z,5.70
2019-03-12T06:29:38.057Z,5.90
2019-03-12T06:39:42.914Z,6.10
2019-03-12T06:49:44.492Z,6.40
2019-03-12T06:59:46.509Z,6.50
2019-03-12T07:09:48.465Z,6.70
2019-03-12T07:19:50.423Z,6.90
2019-03-12T07:29:52.424Z,7.00
2019-03-12T07:39:54.758Z,7.50
2019-03-12T07:49:56.746Z,7.70
2019-03-12T07:59:59.175Z,7.70
2019-03-12T08:10:01.405Z,8.00
2019-03-12T08:20:03.857Z,8.30
2019-03-12T08:30:08.227Z,8.60
2019-03-12T08:40:10.343Z,8.90
2019-03-12T08:50:12.313Z,9.20
2019-03-12T09:00:14.307Z,9.20
2019-03-12T09:10:16.272Z,9.80
2019-03-12T09:20:18.250Z,10.00
2019-03-12T09:30:20.235Z,10.10
2019-03-12T09:40:23.216Z,10.20
2019-03-12T09:50:25.222Z,10.10
2019-03-12T10:00:27.211Z,10.10
2019-03-12T10:10:29.551Z,10.40
2019-03-12T10:20:31.574Z,10.70
2019-03-12T10:30:33.523Z,11.00
2019-03-12T10:40:35.526Z,11.30
2019-03-12T10:50:38.748Z,11.60
2019-03-12T11:00:41.275Z,11.80
2019-03-12T11:10:43.338Z,12.30
2019-03-12T11:20:45.324Z,12.40
2019-03-12T11:30:47.307Z,12.40
2019-03-12T11:40:49.284Z,12.40
2019-03-12T11:50:51.622Z,12.90
2019-03-12T12:00:53.632Z,13.10
2019-03-12T12:10:56.377Z,13.40
2019-03-12T12:20:58.551Z,13.40
2019-03-12T12:31:00.531Z,13.30
2019-03-12T12:41:02.490Z,13.20
2019-03-12T12:51:04.675Z,13.90
2019-03-12T13:01:06.987Z,14.40
2019-03-12T13:11:08.992Z,14.90
2019-03-12T13:21:11.082Z,14.30
2019-03-12T13:31:13.098Z,15.60
2019-03-12T13:41:15.116Z,15.20
2019-03-12T13:51:17.435Z,14.10
2019-03-12T14:01:21.255Z,13.40
2019-03-12T14:11:23.342Z,13.20
2019-03-12T14:21:25.315Z,12.80
2019-03-12T14:31:27.252Z,12.50
2019-03-12T14:41:29.220Z,12.30
2019-03-12T14:52:09.745Z,12.10
2019-03-12T15:02:11.714Z,12.00
2019-03-12T15:12:13.662Z,12.00
2019-03-12T15:22:15.722Z,12.10
2019-03-12T15:32:18.003Z,11.60
2019-03-12T15:42:20.072Z,11.50
2019-03-12T15:52:22.038Z,11.30
2019-03-12T16:02:25.682Z,11.20
2019-03-12T16:12:27.719Z,11.20
2019-03-12T16:22:29.746Z,11.20
2019-03-12T16:32:35.408Z,11.00
2019-03-12T16:42:36.983Z,11.00
2019-03-12T16:52:41.552Z,11.00
2019-03-12T17:02:43.824Z,10.90
2019-03-12T17:12:46.260Z,10.80
2019-03-12T17:22:48.246Z,10.70
2019-03-12T17:32:50.200Z,10.70
2019-03-12T17:42:52.210Z,10.60
2019-03-12T17:52:54.425Z,10.60
2019-03-12T18:02:56.505Z,10.60
2019-03-12T18:12:58.800Z,10.50
2019-03-12T18:23:00.744Z,10.50
2019-03-12T18:33:02.753Z,10.50
2019-03-12T18:43:04.730Z,10.50
2019-03-12T18:53:07.894Z,10.50
2019-03-12T19:03:22.281Z,10.60
2019-03-12T19:13:24.561Z,10.60
2019-03-12T19:23:26.939Z,10.50
2019-03-12T19:33:29.075Z,10.40
2019-03-12T19:43:31.085Z,10.20
2019-03-12T19:53:34.301Z,10.00
2019-03-12T20:03:36.285Z,9.90
2019-03-12T20:13:58.828Z,9.90
2019-03-12T20:24:48.115Z,9.80
2019-03-12T20:35:29.738Z,9.90
2019-03-12T20:46:03.646Z,10.10
2019-03-12T20:56:43.304Z,10.20
2019-03-12T21:07:48.410Z,10.40
2019-03-12T21:18:24.728Z,10.30
2019-03-12T21:28:55.401Z,9.00
2019-03-12T21:38:57.514Z,8.30
2019-03-12T21:48:59.649Z,7.90
2019-03-12T21:59:01.837Z,7.80
2019-03-12T22:09:04.967Z,7.60
2019-03-12T22:19:06.991Z,7.60
2019-03-12T22:29:09.023Z,7.60
2019-03-12T22:39:11.018Z,7.60
2019-03-12T22:49:13.567Z,7.60
2019-03-12T22:59:15.938Z,7.60
2019-03-12T23:09:17.901Z,7.70
2019-03-12T23:19:19.960Z,7.70
2019-03-12T23:29:21.884Z,7.80
2019-03-12T23:39:23.871Z,7.70
2019-03-12T23:49:25.841Z,7.70
2019-03-12T23:59:28.284Z,7.60
